Time;durP1;ratioP1;P1;durP2;ratioP2;P2;SDS_P1;SDS_P2;PMS_P1;PMS_P2;Temp;Humidity;BMP_temperature;BMP_pressure;BME280_temperature;BME280_humidity;BME280_pressure;Samples;Min_cycle;Max_cycle;Signal;HPM_P1;HPM_P2
2023/12/07 00:02:24;;;;;;;19.13;12.00;;;;;4.00;98813.00;;;;5017175;28;20045;-61
2023/12/07 00:04:51;;;;;;;16.67;10.85;;;;;3.90;98818.00;;;;5034186;28;20120;-61
2023/12/07 00:07:17;;;;;;;18.23;11.43;;;;;4.00;98812.00;;;;5034728;28;20041;-62
2023/12/07 00:09:44;;;;;;;19.55;12.40;;;;;4.20;98825.00;;;;5035096;28;20041;-62
2023/12/07 00:12:11;;;;;;;21.52;12.40;;;;;4.30;98829.00;;;;5034933;28;20049;-62
2023/12/07 00:14:37;;;;;;;23.67;12.77;;;;;4.40;98820.00;;;;5034228;28;20508;-61
2023/12/07 00:17:04;;;;;;;21.70;12.40;;;;;4.50;98814.00;;;;5034380;28;20124;-62
2023/12/07 00:19:30;;;;;;;20.13;12.48;;;;;4.60;98822.00;;;;5033337;28;20048;-62
2023/12/07 00:21:57;;;;;;;23.50;12.45;;;;;4.60;98820.00;;;;5034443;28;20055;-62
2023/12/07 00:24:24;;;;;;;20.17;12.82;;;;;4.60;98811.00;;;;5031701;28;20069;-62
2023/12/07 00:26:50;;;;;;;21.52;12.23;;;;;4.70;98811.00;;;;5034356;28;20041;-64
2023/12/07 00:29:17;;;;;;;21.33;13.02;;;;;4.70;98820.00;;;;5034463;28;20512;-62
2023/12/07 00:31:43;;;;;;;21.65;13.35;;;;;4.70;98820.00;;;;5034673;28;20396;-62
2023/12/07 00:34:10;;;;;;;22.10;12.73;;;;;4.70;98822.00;;;;5033820;28;20048;-62
2023/12/07 00:36:38;;;;;;;16.10;11.32;;;;;4.60;98824.00;;;;5034173;28;20483;-62
2023/12/07 00:39:06;;;;;;;18.13;11.05;;;;;4.50;98815.00;;;;5033998;28;20034;-62
2023/12/07 00:41:33;;;;;;;18.05;11.73;;;;;4.40;98831.00;;;;5033039;28;20042;-61
2023/12/07 00:43:59;;;;;;;20.33;13.07;;;;;4.40;98831.00;;;;5033751;28;20057;-60
2023/12/07 00:46:26;;;;;;;23.30;12.98;;;;;4.50;98839.00;;;;5033883;28;20045;-62
2023/12/07 00:48:53;;;;;;;19.77;13.32;;;;;4.60;98846.00;;;;5034017;28;20047;-62
2023/12/07 00:51:20;;;;;;;24.48;13.90;;;;;4.60;98838.00;;;;5032850;28;20517;-61
2023/12/07 00:53:46;;;;;;;27.25;14.23;;;;;4.70;98841.00;;;;5033736;28;20393;-61
2023/12/07 00:56:13;;;;;;;27.67;14.32;;;;;4.70;98834.00;;;;5033826;28;20042;-62
2023/12/07 00:58:39;;;;;;;33.08;17.08;;;;;4.70;98839.00;;;;5033816;28;20489;-63
2023/12/07 01:01:06;;;;;;;28.83;15.30;;;;;4.70;98843.00;;;;5032247;28;20417;-62
2023/12/07 01:03:32;;;;;;;21.40;14.05;;;;;4.70;98848.00;;;;5031899;28;20041;-62
2023/12/07 01:05:59;;;;;;;23.85;13.27;;;;;4.70;98851.00;;;;5032058;28;20132;-62
2023/12/07 01:08:26;;;;;;;21.80;14.50;;;;;4.80;98849.00;;;;5033524;28;20045;-62
2023/12/07 01:10:52;;;;;;;23.92;14.35;;;;;4.80;98856.00;;;;5033614;28;20037;-64
2023/12/07 01:13:19;;;;;;;26.45;15.52;;;;;4.80;98854.00;;;;5032115;28;20059;-64
2023/12/07 01:15:45;;;;;;;26.80;15.45;;;;;4.90;98861.00;;;;5032874;28;20119;-64
2023/12/07 01:18:12;;;;;;;26.85;15.73;;;;;4.90;98860.00;;;;5033136;28;20066;-64
2023/12/07 01:20:38;;;;;;;25.08;14.70;;;;;4.90;98868.00;;;;5033165;28;20125;-64
2023/12/07 01:23:05;;;;;;;22.88;14.27;;;;;4.90;98858.00;;;;5033300;28;20055;-64
2023/12/07 01:25:32;;;;;;;29.00;14.98;;;;;4.90;98867.00;;;;5032591;28;20041;-64
2023/12/07 01:27:58;;;;;;;24.35;16.30;;;;;4.90;98862.00;;;;5033203;28;20182;-64
2023/12/07 01:30:25;;;;;;;25.98;14.57;;;;;5.00;98853.00;;;;5033125;28;20075;-63
2023/12/07 01:32:52;;;;;;;24.90;15.32;;;;;5.00;98853.00;;;;5033215;28;20065;-63
2023/12/07 01:35:19;;;;;;;29.25;14.98;;;;;5.00;98852.00;;;;5031009;28;20414;-63
2023/12/07 01:37:46;;;;;;;25.02;14.93;;;;;5.00;98846.00;;;;5033007;28;20042;-63
2023/12/07 01:40:14;;;;;;;23.33;13.77;;;;;5.00;98847.00;;;;5032945;28;20045;-63
2023/12/07 01:42:50;;;;;;;24.80;15.43;;;;;5.00;98843.00;;;;5033008;28;20045;-63
2023/12/07 01:45:16;;;;;;;25.80;15.10;;;;;5.00;98854.00;;;;5032539;28;20390;-64
2023/12/07 01:47:44;;;;;;;23.52;14.30;;;;;5.10;98853.00;;;;5033055;28;20052;-63
2023/12/07 01:50:14;;;;;;;23.52;14.93;;;;;5.10;98847.00;;;;5033230;28;20048;-62
2023/12/07 01:52:45;;;;;;;26.60;14.20;;;;;5.10;98854.00;;;;5032900;28;20063;-62
2023/12/07 01:55:12;;;;;;;19.90;13.15;;;;;5.00;98853.00;;;;5032320;28;20442;-63
2023/12/07 01:57:40;;;;;;;24.30;13.35;;;;;4.90;98849.00;;;;5032638;28;20041;-62
2023/12/07 02:00:09;;;;;;;21.60;12.98;;;;;4.80;98851.00;;;;5032750;28;20504;-64
2023/12/07 02:02:36;;;;;;;21.98;13.85;;;;;4.80;98847.00;;;;5032685;28;20453;-63
2023/12/07 02:05:04;;;;;;;21.35;14.40;;;;;4.80;98847.00;;;;5032009;28;20486;-63
2023/12/07 02:07:31;;;;;;;24.23;14.68;;;;;4.70;98850.00;;;;5032406;28;20042;-64
2023/12/07 02:09:58;;;;;;;19.02;12.27;;;;;4.70;98858.00;;;;5032390;28;20050;-62
2023/12/07 02:12:25;;;;;;;20.77;12.60;;;;;4.70;98857.00;;;;5032520;28;20041;-62
2023/12/07 02:14:53;;;;;;;25.55;13.10;;;;;4.60;98860.00;;;;5031933;28;20057;-61
2023/12/07 02:17:40;;;;;;;26.08;13.50;;;;;4.50;98853.00;;;;5015023;28;20409;-62
2023/12/07 02:20:20;;;;;;;25.92;13.68;;;;;4.60;98854.00;;;;5032345;28;20103;-61
2023/12/07 02:22:52;;;;;;;21.73;12.75;;;;;4.60;98851.00;;;;5032250;28;20057;-62
2023/12/07 02:25:24;;;;;;;22.23;13.25;;;;;4.60;98863.00;;;;5031770;28;20045;-62
2023/12/07 02:27:50;;;;;;;21.95;14.05;;;;;4.60;98860.00;;;;5032369;28;20457;-62
2023/12/07 02:30:17;;;;;;;22.52;13.57;;;;;4.40;98858.00;;;;5032442;28;20041;-62
2023/12/07 02:32:45;;;;;;;17.67;11.85;;;;;4.30;98860.00;;;;5032055;28;20042;-62
2023/12/07 02:35:13;;;;;;;23.33;13.02;;;;;4.00;98874.00;;;;5031626;28;20045;-62
2023/12/07 02:37:49;;;;;;;19.67;11.82;;;;;4.00;98871.00;;;;5032222;28;20041;-62
2023/12/07 02:40:18;;;;;;;23.05;13.30;;;;;4.00;98865.00;;;;5032120;28;20528;-62
2023/12/07 02:42:46;;;;;;;23.45;14.10;;;;;3.90;98876.00;;;;5031101;28;20399;-62
2023/12/07 02:45:13;;;;;;;20.98;12.77;;;;;3.80;98870.00;;;;5031497;28;20045;-61
2023/12/07 02:47:40;;;;;;;20.75;12.70;;;;;3.90;98868.00;;;;5031545;28;20483;-62
2023/12/07 02:50:07;;;;;;;17.90;11.45;;;;;3.90;98863.00;;;;5032337;28;20045;-62
2023/12/07 02:52:34;;;;;;;20.35;12.35;;;;;3.80;98857.00;;;;5032883;28;20037;-62
2023/12/07 02:55:02;;;;;;;21.60;12.80;;;;;3.80;98858.00;;;;5032496;28;20483;-62
2023/12/07 02:57:29;;;;;;;22.10;12.63;;;;;3.90;98861.00;;;;5032620;28;20065;-62
2023/12/07 02:59:56;;;;;;;19.33;12.05;;;;;3.90;98856.00;;;;5032251;28;20041;-62
2023/12/07 03:02:23;;;;;;;19.55;10.80;;;;;3.70;98860.00;;;;5031548;28;20048;-62
2023/12/07 03:04:50;;;;;;;19.58;11.48;;;;;3.60;98860.00;;;;5014462;28;20127;-62
2023/12/07 03:07:17;;;;;;;18.75;10.93;;;;;3.60;98854.00;;;;5030888;28;20099;-62
2023/12/07 03:09:43;;;;;;;16.33;11.57;;;;;3.50;98864.00;;;;5032434;28;20091;-61
2023/12/07 03:12:10;;;;;;;17.20;10.90;;;;;3.50;98867.00;;;;5031261;28;20045;-62
2023/12/07 03:14:37;;;;;;;15.90;10.60;;;;;3.40;98865.00;;;;5031749;28;20033;-62
2023/12/07 03:17:04;;;;;;;15.65;10.70;;;;;3.40;98863.00;;;;5032393;28;20048;-63
2023/12/07 03:19:30;;;;;;;17.00;10.75;;;;;3.50;98864.00;;;;5032261;28;20069;-61
2023/12/07 03:21:57;;;;;;;17.20;10.20;;;;;3.50;98867.00;;;;5031022;28;20046;-63
2023/12/07 03:24:24;;;;;;;16.73;10.65;;;;;3.60;98867.00;;;;5030409;28;20502;-62
2023/12/07 03:26:50;;;;;;;15.50;10.60;;;;;3.60;98869.00;;;;5032061;28;20037;-62
2023/12/07 03:29:17;;;;;;;16.77;10.82;;;;;3.70;98873.00;;;;5032284;28;20065;-61
2023/12/07 03:31:43;;;;;;;19.23;11.27;;;;;3.70;98873.00;;;;5032183;28;20137;-64
2023/12/07 03:34:11;;;;;;;16.85;11.43;;;;;3.70;98874.00;;;;5030977;28;20099;-63
2023/12/07 03:36:39;;;;;;;17.85;11.43;;;;;3.80;98879.00;;;;5031716;28;20406;-63
2023/12/07 03:39:05;;;;;;;16.15;10.95;;;;;3.80;98872.00;;;;5031409;28;20087;-64
2023/12/07 03:41:32;;;;;;;15.90;11.02;;;;;3.70;98880.00;;;;5031919;28;20445;-63
2023/12/07 03:43:58;;;;;;;16.70;10.98;;;;;3.60;98881.00;;;;5030994;28;20045;-63
2023/12/07 03:46:25;;;;;;;17.50;11.98;;;;;3.60;98875.00;;;;5031449;28;20041;-64
2023/12/07 03:48:51;;;;;;;15.15;11.32;;;;;3.70;98870.00;;;;5031493;28;20083;-64
2023/12/07 03:51:18;;;;;;;19.35;11.68;;;;;3.80;98872.00;;;;5031352;28;20049;-63
2023/12/07 03:53:45;;;;;;;19.17;11.98;;;;;3.90;98872.00;;;;5030886;28;20073;-64
2023/12/07 03:56:23;;;;;;;19.20;11.25;;;;;4.00;98864.00;;;;5031245;28;20387;-64
2023/12/07 03:58:49;;;;;;;19.88;12.55;;;;;4.00;98867.00;;;;5032194;28;20121;-64
2023/12/07 04:01:16;;;;;;;16.42;11.52;;;;;4.00;98866.00;;;;5034846;28;20048;-64
2023/12/07 04:03:43;;;;;;;16.70;10.98;;;;;4.00;98874.00;;;;5034231;28;20057;-63
2023/12/07 04:06:09;;;;;;;20.02;12.13;;;;;4.00;98875.00;;;;5033452;28;20521;-64
2023/12/07 04:08:36;;;;;;;17.63;12.32;;;;;4.10;98860.00;;;;5033448;28;20490;-64
2023/12/07 04:11:03;;;;;;;21.90;13.00;;;;;4.10;98865.00;;;;5034730;28;20163;-63
2023/12/07 04:13:29;;;;;;;23.50;15.52;;;;;4.20;98862.00;;;;5034290;28;20132;-64
2023/12/07 04:15:56;;;;;;;18.85;12.25;;;;;4.20;98876.00;;;;5034623;28;20129;-64
2023/12/07 04:18:23;;;;;;;18.70;12.35;;;;;4.30;98869.00;;;;5034443;28;20048;-62
2023/12/07 04:20:49;;;;;;;20.80;12.40;;;;;4.30;98878.00;;;;5033370;28;20052;-64
2023/12/07 04:23:16;;;;;;;22.17;12.38;;;;;4.30;98879.00;;;;5034320;28;20494;-64
2023/12/07 04:25:43;;;;;;;21.67;12.82;;;;;4.30;98873.00;;;;5033908;28;20053;-64
2023/12/07 04:28:09;;;;;;;19.02;11.82;;;;;4.30;98882.00;;;;5034518;28;20048;-64
2023/12/07 04:30:36;;;;;;;22.27;12.93;;;;;4.30;98875.00;;;;5034340;28;20457;-64
2023/12/07 04:33:03;;;;;;;22.63;13.23;;;;;4.30;98881.00;;;;5034205;28;20055;-64
2023/12/07 04:35:30;;;;;;;20.30;12.63;;;;;4.40;98886.00;;;;5033597;28;20075;-64
2023/12/07 04:37:57;;;;;;;19.65;11.30;;;;;4.30;98889.00;;;;5034083;28;20051;-64
2023/12/07 04:40:24;;;;;;;15.27;10.77;;;;;4.30;98890.00;;;;5034189;28;20038;-63
2023/12/07 04:42:51;;;;;;;19.10;10.98;;;;;4.30;98887.00;;;;5034189;28;20091;-64
2023/12/07 04:45:18;;;;;;;17.63;10.13;;;;;4.20;98889.00;;;;5033528;28;20053;-64
2023/12/07 04:47:45;;;;;;;16.33;10.65;;;;;4.30;98882.00;;;;5033999;28;20053;-64
2023/12/07 04:50:12;;;;;;;16.65;11.20;;;;;4.30;98869.00;;;;5033883;28;20049;-63
2023/12/07 04:52:39;;;;;;;18.55;12.00;;;;;4.30;98865.00;;;;5033818;28;20132;-64
2023/12/07 04:55:06;;;;;;;16.95;11.50;;;;;4.40;98863.00;;;;5033306;28;20049;-64
2023/12/07 04:57:34;;;;;;;19.70;10.95;;;;;4.40;98861.00;;;;5033794;28;20049;-64
2023/12/07 05:00:05;;;;;;;19.70;12.35;;;;;4.40;98856.00;;;;5033616;28;20486;-64
2023/12/07 05:02:32;;;;;;;18.88;11.88;;;;;4.30;98870.00;;;;5033815;28;20059;-64
2023/12/07 05:04:59;;;;;;;21.95;13.02;;;;;4.30;98879.00;;;;5032969;28;20045;-64
2023/12/07 05:07:25;;;;;;;18.98;12.98;;;;;4.20;98877.00;;;;5033494;28;20053;-64
2023/12/07 05:09:52;;;;;;;21.00;14.00;;;;;4.30;98877.00;;;;5033114;28;20400;-64
2023/12/07 05:12:19;;;;;;;21.30;13.77;;;;;4.30;98874.00;;;;5033650;28;20048;-64
2023/12/07 05:14:45;;;;;;;19.20;13.40;;;;;4.40;98883.00;;;;5033196;28;20069;-63
2023/12/07 05:17:12;;;;;;;21.42;13.55;;;;;4.40;98878.00;;;;5033412;28;20041;-64
2023/12/07 05:19:38;;;;;;;24.58;13.57;;;;;4.40;98881.00;;;;5033500;28;20418;-63
2023/12/07 05:22:05;;;;;;;18.63;12.32;;;;;4.40;98874.00;;;;5033235;28;20051;-63
2023/12/07 05:24:34;;;;;;;21.55;13.45;;;;;4.40;98879.00;;;;5031526;28;20068;-63
2023/12/07 05:27:00;;;;;;;19.70;12.38;;;;;4.40;98875.00;;;;5033307;28;20120;-64
2023/12/07 05:29:27;;;;;;;16.58;12.05;;;;;4.40;98875.00;;;;5033255;28;20045;-64
2023/12/07 05:31:54;;;;;;;19.85;12.48;;;;;4.40;98878.00;;;;5033009;28;20053;-64
2023/12/07 05:34:20;;;;;;;22.75;13.38;;;;;4.40;98886.00;;;;5032618;28;20046;-64
2023/12/07 05:36:47;;;;;;;17.27;12.35;;;;;4.40;98883.00;;;;5033486;28;20457;-61
2023/12/07 05:39:14;;;;;;;20.83;12.98;;;;;4.40;98888.00;;;;5031752;28;20041;-61
2023/12/07 05:41:41;;;;;;;19.70;13.43;;;;;4.40;98897.00;;;;5033155;28;20041;-61
2023/12/07 05:44:07;;;;;;;17.88;12.13;;;;;4.30;98900.00;;;;5032888;28;20045;-62
2023/12/07 05:46:36;;;;;;;16.77;10.73;;;;;4.30;98897.00;;;;5032054;28;20494;-61
2023/12/07 05:49:03;;;;;;;21.33;13.20;;;;;4.30;98898.00;;;;5033070;28;20041;-61
2023/12/07 05:51:29;;;;;;;22.70;12.68;;;;;4.30;98911.00;;;;5033007;28;20408;-61
2023/12/07 05:53:56;;;;;;;18.52;12.10;;;;;4.20;98901.00;;;;5032198;28;20057;-62
2023/12/07 05:56:22;;;;;;;17.38;11.88;;;;;4.20;98895.00;;;;5032772;28;20406;-62
2023/12/07 05:58:49;;;;;;;19.15;11.13;;;;;4.20;98891.00;;;;5032785;28;20084;-64
2023/12/07 06:01:18;;;;;;;19.83;11.73;;;;;4.10;98892.00;;;;5032731;28;20064;-64
2023/12/07 06:03:45;;;;;;;17.50;10.63;;;;;4.00;98888.00;;;;5032088;28;20572;-64
2023/12/07 06:06:12;;;;;;;16.92;11.27;;;;;3.90;98882.00;;;;5032127;28;20502;-63
2023/12/07 06:08:39;;;;;;;18.63;11.73;;;;;4.00;98886.00;;;;5032721;28;20037;-62
2023/12/07 06:11:06;;;;;;;16.08;10.60;;;;;4.00;98890.00;;;;5032585;28;20037;-61
2023/12/07 06:13:33;;;;;;;18.67;11.90;;;;;4.00;98887.00;;;;5031698;28;20049;-62
2023/12/07 06:16:01;;;;;;;21.17;13.27;;;;;4.10;98895.00;;;;5032457;28;20041;-61
2023/12/07 06:18:27;;;;;;;18.85;12.52;;;;;4.10;98903.00;;;;5032846;28;20045;-61
2023/12/07 06:20:54;;;;;;;20.75;11.70;;;;;4.10;98906.00;;;;5031788;28;20049;-61
2023/12/07 06:23:21;;;;;;;17.48;11.43;;;;;4.10;98901.00;;;;5031688;28;20045;-61
2023/12/07 06:25:49;;;;;;;16.40;11.40;;;;;4.00;98894.00;;;;5031979;28;20501;-61
2023/12/07 06:28:15;;;;;;;20.25;12.07;;;;;3.90;98902.00;;;;5031949;28;20124;-60
2023/12/07 06:30:42;;;;;;;19.58;11.88;;;;;3.90;98891.00;;;;5032106;28;20116;-63
2023/12/07 06:33:08;;;;;;;19.70;11.43;;;;;3.90;98888.00;;;;5032149;28;20084;-62
2023/12/07 06:35:35;;;;;;;17.88;11.25;;;;;3.90;98885.00;;;;5030024;28;20064;-63
2023/12/07 06:38:02;;;;;;;18.95;12.55;;;;;4.00;98889.00;;;;5032079;28;20051;-63
2023/12/07 06:40:28;;;;;;;16.90;10.57;;;;;4.00;98898.00;;;;5031968;28;20449;-63
2023/12/07 06:42:55;;;;;;;19.58;12.65;;;;;4.10;98899.00;;;;5031854;28;20052;-62
2023/12/07 06:45:21;;;;;;;19.52;11.63;;;;;4.10;98903.00;;;;5031436;28;20137;-63
2023/12/07 06:47:48;;;;;;;22.50;13.05;;;;;4.10;98909.00;;;;5032080;28;20060;-63
2023/12/07 06:50:15;;;;;;;18.98;12.82;;;;;4.10;98915.00;;;;5031955;28;20425;-63
2023/12/07 06:52:41;;;;;;;21.67;11.88;;;;;4.10;98923.00;;;;5031915;28;20081;-62
2023/12/07 06:55:10;;;;;;;21.30;12.73;;;;;4.10;98936.00;;;;5031530;28;20063;-63
2023/12/07 06:57:37;;;;;;;19.60;12.35;;;;;4.00;98937.00;;;;5032104;28;20060;-63
2023/12/07 07:00:09;;;;;;;21.67;11.98;;;;;3.90;98941.00;;;;5032203;28;20073;-63
2023/12/07 07:02:40;;;;;;;18.48;12.05;;;;;3.80;98947.00;;;;5031875;28;20053;-61
2023/12/07 07:05:07;;;;;;;21.70;12.13;;;;;3.70;98943.00;;;;5031601;28;20417;-61
2023/12/07 07:07:34;;;;;;;21.52;12.90;;;;;3.70;98950.00;;;;5032277;28;20103;-62
2023/12/07 07:10:01;;;;;;;21.92;12.57;;;;;3.80;98956.00;;;;5031821;28;20095;-61
2023/12/07 07:12:29;;;;;;;19.02;11.20;;;;;3.80;98947.00;;;;5031973;28;20045;-62
2023/12/07 07:14:56;;;;;;;22.02;10.93;;;;;3.80;98934.00;;;;5031412;28;20125;-61
2023/12/07 07:17:22;;;;;;;18.55;11.52;;;;;3.80;98931.00;;;;5031436;28;20051;-62
2023/12/07 07:19:49;;;;;;;17.60;11.43;;;;;3.80;98926.00;;;;5031526;28;20124;-64
2023/12/07 07:22:16;;;;;;;20.98;11.60;;;;;3.90;98929.00;;;;5031550;28;20095;-64
2023/12/07 07:24:42;;;;;;;21.17;12.18;;;;;3.90;98926.00;;;;5030946;28;20037;-63
2023/12/07 07:27:09;;;;;;;18.20;11.18;;;;;3.80;98929.00;;;;5031636;28;20065;-64
2023/12/07 07:29:35;;;;;;;19.60;12.35;;;;;3.90;98923.00;;;;5031604;28;20045;-64
2023/12/07 07:32:02;;;;;;;18.88;11.60;;;;;4.00;98913.00;;;;5031595;28;20042;-64
2023/12/07 07:34:29;;;;;;;17.58;11.15;;;;;3.90;98906.00;;;;5034577;28;20049;-64
2023/12/07 07:36:55;;;;;;;17.52;11.65;;;;;3.80;98903.00;;;;5035105;28;20117;-64
2023/12/07 07:39:22;;;;;;;20.75;12.43;;;;;3.80;98905.00;;;;5034170;28;20558;-64
2023/12/07 07:41:48;;;;;;;18.13;10.88;;;;;3.80;98903.00;;;;5035670;28;20327;-65
2023/12/07 07:44:22;;;;;;;18.92;11.48;;;;;3.60;98907.00;;;;5034756;28;20052;-64
2023/12/07 07:46:49;;;;;;;17.00;11.18;;;;;3.60;98920.00;;;;5034052;28;20060;-65
2023/12/07 07:49:16;;;;;;;17.58;9.82;;;;;3.80;98912.00;;;;5035378;28;20096;-64
2023/12/07 07:51:42;;;;;;;16.60;11.10;;;;;3.70;98915.00;;;;5035628;28;20103;-63
2023/12/07 07:54:09;;;;;;;15.95;10.40;;;;;3.60;98904.00;;;;5034888;28;20479;-63
2023/12/07 07:56:36;;;;;;;12.90;8.60;;;;;3.50;98901.00;;;;5035296;28;20122;-63
2023/12/07 07:59:03;;;;;;;17.25;9.75;;;;;3.40;98900.00;;;;5035018;28;20045;-63
2023/12/07 08:01:30;;;;;;;21.05;12.30;;;;;3.30;98890.00;;;;5034892;28;20045;-63
2023/12/07 08:03:56;;;;;;;17.83;11.10;;;;;3.30;98893.00;;;;5033249;28;20500;-63
2023/12/07 08:06:23;;;;;;;13.52;8.93;;;;;3.60;98886.00;;;;5034887;28;20052;-63
2023/12/07 08:08:50;;;;;;;14.38;9.30;;;;;3.80;98883.00;;;;5034666;28;20083;-63
2023/12/07 08:11:17;;;;;;;15.88;9.57;;;;;3.90;98882.00;;;;5033526;28;20120;-63
2023/12/07 08:13:44;;;;;;;16.40;10.00;;;;;3.70;98875.00;;;;5034203;28;20095;-63
2023/12/07 08:16:11;;;;;;;19.13;12.05;;;;;3.50;98873.00;;;;5034676;28;20406;-63
2023/12/07 08:18:37;;;;;;;18.17;10.55;;;;;3.60;98861.00;;;;5033497;28;20414;-63
2023/12/07 08:21:04;;;;;;;18.73;10.73;;;;;3.80;98855.00;;;;5034551;28;20061;-63
2023/12/07 08:23:31;;;;;;;18.42;9.55;;;;;3.60;98866.00;;;;5034009;28;20433;-63
2023/12/07 08:25:58;;;;;;;15.07;9.95;;;;;3.40;98862.00;;;;5034470;28;20502;-63
2023/12/07 08:28:24;;;;;;;14.90;9.07;;;;;3.40;98869.00;;;;5035432;28;20068;-62
2023/12/07 08:30:51;;;;;;;15.20;10.02;;;;;3.40;98866.00;;;;5035123;28;20041;-63
2023/12/07 08:33:17;;;;;;;12.20;8.23;;;;;3.30;98860.00;;;;5034718;28;20053;-63
2023/12/07 08:35:44;;;;;;;13.77;9.18;;;;;3.30;98858.00;;;;5034191;28;20457;-62
2023/12/07 08:38:11;;;;;;;11.85;7.57;;;;;3.20;98860.00;;;;5034651;28;20042;-63
2023/12/07 08:40:38;;;;;;;12.60;7.88;;;;;3.40;98864.00;;;;5034556;28;20083;-63
2023/12/07 08:43:05;;;;;;;10.32;7.25;;;;;3.40;98868.00;;;;5034378;28;20120;-63
2023/12/07 08:45:31;;;;;;;11.15;6.65;;;;;3.40;98861.00;;;;5032805;28;20041;-63
2023/12/07 08:47:58;;;;;;;11.82;7.22;;;;;3.40;98856.00;;;;5034385;28;20059;-63
2023/12/07 08:50:24;;;;;;;10.38;7.32;;;;;3.20;98858.00;;;;5032937;28;20210;-63
2023/12/07 08:52:51;;;;;;;10.90;7.80;;;;;3.20;98860.00;;;;5034352;28;20124;-63
2023/12/07 08:55:28;;;;;;;12.70;7.97;;;;;3.20;98854.00;;;;5033418;28;20057;-62
2023/12/07 08:57:55;;;;;;;13.90;7.85;;;;;3.30;98846.00;;;;5033912;28;20071;-63
2023/12/07 09:00:24;;;;;;;10.55;7.25;;;;;3.60;98846.00;;;;5033597;28;20545;-63
2023/12/07 09:02:51;;;;;;;12.38;7.93;;;;;3.80;98843.00;;;;5033842;28;20072;-63
2023/12/07 09:05:18;;;;;;;11.77;7.90;;;;;4.00;98846.00;;;;5033247;28;20056;-65
2023/12/07 09:07:44;;;;;;;9.90;6.70;;;;;4.10;98852.00;;;;5033807;28;20494;-63
2023/12/07 09:10:11;;;;;;;10.30;6.70;;;;;4.10;98855.00;;;;5032471;28;20395;-63
2023/12/07 09:12:38;;;;;;;10.18;7.13;;;;;4.10;98852.00;;;;5033680;28;20041;-63
2023/12/07 09:15:09;;;;;;;12.50;7.47;;;;;4.30;98854.00;;;;5033042;28;20060;-62
2023/12/07 09:17:38;;;;;;;10.40;7.00;;;;;4.20;98855.00;;;;5032195;28;20055;-63
2023/12/07 09:20:12;;;;;;;8.80;6.40;;;;;4.20;98855.00;;;;5033406;28;20092;-63
2023/12/07 09:22:42;;;;;;;8.57;6.65;;;;;3.90;98850.00;;;;5032057;28;20056;-63
2023/12/07 09:25:10;;;;;;;8.20;6.05;;;;;3.60;98852.00;;;;5031488;28;20053;-65
2023/12/07 09:27:37;;;;;;;10.90;6.47;;;;;3.70;98854.00;;;;5033313;28;20135;-63
2023/12/07 09:30:06;;;;;;;8.73;6.72;;;;;3.90;98855.00;;;;5033205;28;20050;-62
2023/12/07 09:32:38;;;;;;;8.98;6.65;;;;;3.90;98851.00;;;;5033248;28;20391;-63
2023/12/07 09:35:08;;;;;;;10.40;7.07;;;;;4.00;98856.00;;;;5032712;28;20099;-62
2023/12/07 09:37:34;;;;;;;9.82;6.90;;;;;4.00;98856.00;;;;5033197;28;20049;-62
2023/12/07 09:40:04;;;;;;;14.32;9.18;;;;;3.90;98850.00;;;;5031995;28;20053;-62
2023/12/07 09:42:31;;;;;;;9.90;7.22;;;;;3.80;98849.00;;;;5033103;28;20068;-62
2023/12/07 09:45:04;;;;;;;16.40;10.82;;;;;4.00;98863.00;;;;5032813;28;20041;-62
2023/12/07 09:47:33;;;;;;;13.45;8.48;;;;;4.00;98855.00;;;;5032521;28;20100;-62
2023/12/07 09:50:05;;;;;;;10.68;7.40;;;;;4.10;98860.00;;;;5033741;28;20072;-62
2023/12/07 09:52:32;;;;;;;12.13;7.90;;;;;4.10;98848.00;;;;5033965;28;20045;-63
2023/12/07 09:54:59;;;;;;;9.43;7.57;;;;;4.10;98852.00;;;;5034245;28;20103;-63
2023/12/07 09:57:26;;;;;;;11.20;7.85;;;;;4.00;98848.00;;;;5034378;28;20041;-63
2023/12/07 09:59:56;;;;;;;10.45;7.68;;;;;4.00;98856.00;;;;5033835;28;20042;-63
2023/12/07 10:02:24;;;;;;;10.40;7.38;;;;;4.10;98849.00;;;;5033778;28;20320;-63
2023/12/07 10:05:07;;;;;;;12.23;8.38;;;;;4.00;98846.00;;;;5033011;28;20041;-63
2023/12/07 10:07:36;;;;;;;10.70;7.53;;;;;4.30;98841.00;;;;5033400;28;20052;-64
2023/12/07 10:10:04;;;;;;;11.40;8.05;;;;;4.40;98842.00;;;;5033137;28;20043;-63
2023/12/07 10:12:34;;;;;;;11.60;7.68;;;;;4.20;98835.00;;;;5033238;28;20490;-61
2023/12/07 10:15:04;;;;;;;11.27;7.65;;;;;4.10;98832.00;;;;5032599;28;20051;-60
2023/12/07 10:17:54;;;;;;;10.70;8.57;;;;;4.00;98834.00;;;;5033308;28;20041;-61
2023/12/07 10:20:25;;;;;;;10.43;7.43;;;;;3.90;98826.00;;;;5032570;28;20037;-61
2023/12/07 10:23:05;;;;;;;9.50;7.22;;;;;3.80;98820.00;;;;5032370;28;20565;-63
2023/12/07 10:25:34;;;;;;;13.38;8.50;;;;;3.80;98807.00;;;;5030533;28;20083;-62
2023/12/07 10:28:06;;;;;;;14.18;7.78;;;;;3.90;98801.00;;;;5032233;28;20084;-62
2023/12/07 10:30:37;;;;;;;11.88;8.15;;;;;3.90;98809.00;;;;5032364;28;20079;-63
2023/12/07 10:33:07;;;;;;;10.63;8.25;;;;;3.90;98799.00;;;;5032192;28;20057;-63
2023/12/07 10:35:41;;;;;;;14.23;9.32;;;;;3.90;98798.00;;;;5031510;28;20073;-62
2023/12/07 10:38:09;;;;;;;12.85;8.30;;;;;4.00;98787.00;;;;5032405;28;20419;-63
2023/12/07 10:40:36;;;;;;;10.90;8.15;;;;;4.20;98780.00;;;;5032048;28;20103;-62
2023/12/07 10:43:07;;;;;;;8.68;5.80;;;;;4.30;98782.00;;;;5032174;28;20095;-63
2023/12/07 10:45:36;;;;;;;9.25;6.57;;;;;4.50;98773.00;;;;5030213;28;20051;-62
2023/12/07 10:48:06;;;;;;;8.80;6.63;;;;;4.30;98771.00;;;;5031087;28;20041;-63
2023/12/07 10:50:41;;;;;;;8.75;6.38;;;;;4.10;98767.00;;;;5032178;28;20411;-63
2023/12/07 10:53:21;;;;;;;9.52;6.82;;;;;4.20;98770.00;;;;5032260;28;20037;-63
2023/12/07 10:55:55;;;;;;;9.25;5.95;;;;;4.40;98754.00;;;;5030556;28;20080;-63
2023/12/07 10:58:25;;;;;;;8.25;6.63;;;;;4.70;98751.00;;;;5030850;28;20051;-64
2023/12/07 11:00:53;;;;;;;9.07;6.15;;;;;4.80;98748.00;;;;5031812;28;20391;-64
2023/12/07 11:03:20;;;;;;;8.77;6.28;;;;;4.90;98750.00;;;;5031707;28;20128;-64
2023/12/07 11:05:48;;;;;;;9.48;6.15;;;;;4.90;98745.00;;;;5031407;28;20129;-64
2023/12/07 11:08:32;;;;;;;8.82;6.20;;;;;4.90;98746.00;;;;5032158;28;20095;-64
2023/12/07 11:11:03;;;;;;;8.15;6.22;;;;;4.90;98738.00;;;;5035876;28;20095;-64
2023/12/07 11:13:32;;;;;;;15.48;9.38;;;;;5.00;98729.00;;;;5035476;28;20410;-64
2023/12/07 11:16:00;;;;;;;10.10;6.60;;;;;5.00;98725.00;;;;5035880;28;20055;-61
2023/12/07 11:18:29;;;;;;;8.02;5.63;;;;;5.00;98738.00;;;;5036120;28;20037;-62
2023/12/07 11:20:57;;;;;;;8.30;5.43;;;;;4.80;98718.00;;;;5035731;28;20542;-64
2023/12/07 11:23:27;;;;;;;8.55;5.60;;;;;4.60;98720.00;;;;5033909;28;20054;-65
2023/12/07 11:25:55;;;;;;;9.38;6.43;;;;;4.60;98707.00;;;;5035814;28;20046;-62
2023/12/07 11:28:36;;;;;;;10.27;5.40;;;;;4.50;98713.00;;;;5036010;28;20077;-62
2023/12/07 11:31:03;;;;;;;6.47;5.20;;;;;4.40;98705.00;;;;5035650;28;20120;-62
2023/12/07 11:33:30;;;;;;;9.48;6.53;;;;;4.40;98702.00;;;;5035214;28;20049;-64
2023/12/07 11:36:00;;;;;;;8.00;6.90;;;;;4.50;98690.00;;;;5035450;28;20052;-64
2023/12/07 11:38:26;;;;;;;10.25;6.35;;;;;4.50;98694.00;;;;5036107;28;20049;-64
2023/12/07 11:40:55;;;;;;;11.25;7.18;;;;;4.60;98685.00;;;;5036329;28;20099;-64
2023/12/07 11:43:35;;;;;;;11.25;6.40;;;;;4.50;98669.00;;;;5034123;28;20049;-64
2023/12/07 11:46:12;;;;;;;9.77;6.60;;;;;4.60;98668.00;;;;5035352;28;20042;-64
2023/12/07 11:48:39;;;;;;;7.53;5.80;;;;;4.70;98661.00;;;;5035417;28;20049;-64
2023/12/07 11:51:13;;;;;;;6.63;5.45;;;;;4.80;98663.00;;;;5035894;28;20041;-63
2023/12/07 11:53:39;;;;;;;6.82;5.50;;;;;4.80;98656.00;;;;5034767;28;20766;-64
2023/12/07 11:56:08;;;;;;;9.68;5.72;;;;;4.80;98649.00;;;;5035365;28;20041;-64
2023/12/07 11:58:36;;;;;;;8.30;6.15;;;;;5.00;98651.00;;;;5035406;28;20124;-64
2023/12/07 12:01:07;;;;;;;11.48;7.20;;;;;4.90;98654.00;;;;5035486;28;20055;-64
2023/12/07 12:03:36;;;;;;;6.80;5.18;;;;;4.80;98647.00;;;;5035291;28;20075;-64
2023/12/07 12:06:05;;;;;;;8.35;5.50;;;;;4.70;98645.00;;;;5035717;28;20049;-63
2023/12/07 12:08:32;;;;;;;8.40;5.80;;;;;4.60;98638.00;;;;5035297;28;20045;-64
2023/12/07 12:11:01;;;;;;;8.32;6.43;;;;;4.60;98639.00;;;;5035389;28;20042;-64
2023/12/07 12:13:29;;;;;;;10.73;7.60;;;;;4.60;98641.00;;;;5034631;28;20050;-64
2023/12/07 12:15:57;;;;;;;12.75;8.02;;;;;4.60;98641.00;;;;5033704;28;20041;-64
2023/12/07 12:18:28;;;;;;;18.63;8.52;;;;;4.60;98629.00;;;;5034425;28;20774;-64